Vidsel, Sweden

12:09 AM CET on January 30, 2015 (GMT +0100)
Vidsel Air Base | Change Station
CLOSE
Current Station
Airport
Location: Vidsel,
Elevation: 597 ft
Nearby Weather Stations

Elev 597 ft 65.88 °N, 20.14 °E | Updated 19 minutes ago

Light Snow
Light Snow Mist
19 °F
Feels Like 13 °F
N
5
Wind Variable Wind from NE

Today
High -- | Low -- °F
--% Chance of Precip.
Yesterday
High -- | Low -- °F
Precip. -- in
8:42 AM 3:03 PM
Waxing Gibbous, 78% visible
Pressure 29.03 in
Visibility 3.7 miles
Clouds Overcast 1500 ft
Windchill 13 °F
Dew Point 16 °F
Humidity 86%
Rainfall 0.00 in
Snow Depth Not available.
UV 0 out of 12
Pollen Not available.
Air Quality Not available.
Flu Activity Not available.
METAR ESPE 292250Z AUTO 04004KT 010V070 6000NDV -SN BR OVC015/// M07/M09 Q0983 RESN

More Conditions Fewer Conditions

Pressure 29.03 in
Visibility 3.7 miles
Clouds Overcast 1500 ft
Windchill 13 °F
Dew Point 16 °F
Humidity 86%
Rainfall 0.00 in
Snow Depth Not available.
UV 0 out of 12
Pollen Not available.
Air Quality Not available.
Flu Activity Not available.
METAR ESPE 292250Z AUTO 04004KT 010V070 6000NDV -SN BR OVC015/// M07/M09 Q0983 RESN

More Conditions Fewer Conditions

10-Day Weather Forecast

Almanac

Astronomy

Jan. 30, 2015 Rise Set
Actual Time
Civil Twilight
Nautical Twilight
Astronomical Twilight
Moon
Length of Visible Light
Length of Day
Tomorrow will be .
, % of the Moon is Illuminated

Today's Extremes

Country Highs Country Lows

Community

WunderPhotos

Upload Photos

1,791,637 photos uploaded!

WunderBlogs® & News

Nearby

Air Quality

  Air Quality AQ Index Pollutant
Not available.

Snow Depth

Station Depth Elevation

Earthquake Activity

City Distance Mag. Time & Date
Minimum magnitude displayed is 2.5.

Coastal Water Temperatures

Place Temperature

Nearby Weather Stations